createdAt,value
2018-12-04T00:01:01.657Z,99865.13
2018-12-04T00:03:30.467Z,99864.87
2018-12-04T00:05:59.231Z,99861.88
2018-12-04T00:08:28.030Z,99870.59
2018-12-04T00:10:56.808Z,99872.11
2018-12-04T00:13:25.973Z,99887.70
2018-12-04T00:15:54.734Z,99883.48
2018-12-04T00:18:23.608Z,99876.05
2018-12-04T00:20:52.833Z,99889.05
2018-12-04T00:23:21.630Z,99889.88
2018-12-04T00:25:50.406Z,99886.72
2018-12-04T00:28:19.474Z,99891.71
2018-12-04T00:30:48.257Z,99896.63
2018-12-04T00:33:17.034Z,99895.66
2018-12-04T00:35:45.771Z,99901.14
2018-12-04T00:38:14.558Z,99901.03
2018-12-04T00:40:44.267Z,99909.23
2018-12-04T00:43:13.401Z,99922.69
2018-12-04T00:45:42.175Z,99922.66
2018-12-04T00:48:10.954Z,99916.09
2018-12-04T00:50:39.763Z,99921.75
2018-12-04T00:53:10.412Z,99936.40
2018-12-04T00:55:38.555Z,99937.16
2018-12-04T00:58:07.617Z,99941.09
2018-12-04T01:00:36.860Z,99939.30
2018-12-04T01:03:05.708Z,99946.81
2018-12-04T01:05:34.504Z,99950.95
2018-12-04T01:08:04.020Z,99954.54
2018-12-04T01:10:33.210Z,99964.68
2018-12-04T01:13:02.179Z,99967.63
2018-12-04T01:15:31.019Z,99970.56
2018-12-04T01:17:59.780Z,99970.61
2018-12-04T01:20:28.911Z,99982.91
2018-12-04T01:22:57.715Z,99984.45
2018-12-04T01:25:26.800Z,99988.92
2018-12-04T01:27:55.539Z,99987.55
2018-12-04T01:30:24.728Z,99993.39
2018-12-04T01:32:53.523Z,100003.91
2018-12-04T01:35:22.339Z,100003.73
2018-12-04T01:37:51.147Z,100002.31
2018-12-04T01:40:20.347Z,99999.96
2018-12-04T01:42:49.172Z,100003.63
2018-12-04T01:45:17.963Z,100006.94
2018-12-04T01:47:46.732Z,100002.81
2018-12-04T01:50:15.717Z,100006.94
2018-12-04T01:52:44.502Z,100014.30
2018-12-04T01:55:13.712Z,100025.07
2018-12-04T01:57:42.494Z,100015.69
2018-12-04T02:00:11.307Z,100015.69
2018-12-04T02:02:40.426Z,100018.60
2018-12-04T02:05:09.205Z,100023.40
2018-12-04T02:07:37.962Z,100017.96
2018-12-04T02:10:07.091Z,100018.50
2018-12-04T02:12:35.892Z,100017.75
2018-12-04T02:15:04.839Z,100019.52
2018-12-04T02:17:33.669Z,100024.43
2018-12-04T02:20:04.589Z,100031.22
2018-12-04T02:22:33.413Z,100031.11
2018-12-04T02:25:02.341Z,100038.44
2018-12-04T02:27:31.219Z,100040.85
2018-12-04T02:30:00.271Z,100041.98
2018-12-04T02:32:29.123Z,100045.76
2018-12-04T02:34:57.855Z,100052.97
2018-12-04T02:37:26.625Z,100055.78
2018-12-04T02:39:55.383Z,100056.35
2018-12-04T02:42:26.077Z,100061.61
2018-12-04T02:44:55.405Z,100053.22
2018-12-04T02:47:24.197Z,100063.78
2018-12-04T02:49:52.941Z,100065.84
2018-12-04T02:52:22.199Z,100075.05
2018-12-04T02:54:50.968Z,100081.55
2018-12-04T02:57:19.775Z,100079.75
2018-12-04T02:59:48.937Z,100087.00
2018-12-04T03:02:34.442Z,100093.75
2018-12-04T03:05:10.105Z,100096.74
2018-12-04T03:07:39.353Z,100104.20
2018-12-04T03:10:08.613Z,100098.54
2018-12-04T03:12:42.467Z,100106.61
2018-12-04T03:15:12.166Z,100115.27
2018-12-04T03:17:41.353Z,100116.88
2018-12-04T03:20:20.300Z,100119.48
2018-12-04T03:25:25.654Z,100130.02
2018-12-04T03:27:54.673Z,100133.13
2018-12-04T03:30:28.679Z,100135.28
2018-12-04T03:32:59.870Z,100137.45
2018-12-04T03:35:29.906Z,100143.17
2018-12-04T03:38:05.617Z,100145.80
2018-12-04T03:40:34.738Z,100157.16
2018-12-04T03:43:04.791Z,100153.31
2018-12-04T03:45:35.277Z,100159.22
2018-12-04T03:48:05.419Z,100172.19
2018-12-04T03:50:34.737Z,100173.77
2018-12-04T03:53:05.392Z,100182.02
2018-12-04T03:55:34.743Z,100182.58
2018-12-04T03:58:09.056Z,100186.55
2018-12-04T04:00:38.395Z,100189.01
2018-12-04T04:03:07.183Z,100196.97
2018-12-04T04:05:35.952Z,100198.31
2018-12-04T04:08:05.744Z,100192.39
2018-12-04T04:10:34.570Z,100200.16
2018-12-04T04:13:03.420Z,100201.86
2018-12-04T04:15:43.378Z,100206.17
2018-12-04T04:18:12.264Z,100206.56
2018-12-04T04:20:41.337Z,100208.34
2018-12-04T04:23:10.147Z,100212.94
2018-12-04T04:25:39.090Z,100217.67
2018-12-04T04:28:08.165Z,100217.35
2018-12-04T04:30:37.163Z,100233.33
2018-12-04T04:33:05.955Z,100245.42
2018-12-04T04:35:35.245Z,100252.19
2018-12-04T04:38:05.093Z,100252.29
2018-12-04T04:40:33.932Z,100255.58
2018-12-04T04:43:03.135Z,100265.23
2018-12-04T04:45:31.912Z,100265.80
2018-12-04T04:48:00.692Z,100282.59
2018-12-04T04:50:29.811Z,100285.78
2018-12-04T04:52:58.597Z,100288.87
2018-12-04T04:58:07.389Z,100307.02
2018-12-04T05:00:37.976Z,100307.73
2018-12-04T05:03:06.829Z,100309.03
2018-12-04T05:05:40.303Z,100308.84
2018-12-04T05:08:09.117Z,100311.97
2018-12-04T05:10:37.961Z,100314.45
2018-12-04T05:13:07.211Z,100316.98
2018-12-04T05:18:15.493Z,100326.44
2018-12-04T05:20:49.979Z,100331.68
2018-12-04T05:23:18.776Z,100336.03
2018-12-04T05:28:27.484Z,100347.31
2018-12-04T05:30:56.316Z,100344.33
2018-12-04T05:33:25.190Z,100340.28
2018-12-04T05:35:54.351Z,100348.81
2018-12-04T05:38:24.884Z,100356.86
2018-12-04T05:40:53.685Z,100357.36
2018-12-04T05:43:22.875Z,100367.46
2018-12-04T05:45:55.283Z,100364.41
2018-12-04T05:48:24.094Z,100374.80
2018-12-04T05:50:53.454Z,100378.19
2018-12-04T05:53:42.877Z,100378.28
2018-12-04T05:56:13.276Z,100385.52
2018-12-04T05:58:45.079Z,100389.92
2018-12-04T06:01:13.890Z,100386.27
2018-12-04T06:03:45.128Z,100380.34
2018-12-04T06:06:13.963Z,100391.49
2018-12-04T06:08:42.767Z,100400.69
2018-12-04T06:11:12.095Z,100399.34
2018-12-04T06:13:40.948Z,100408.45
2018-12-04T06:16:09.817Z,100411.69
2018-12-04T06:18:39.017Z,100416.18
2018-12-04T06:21:07.996Z,100425.23
2018-12-04T06:23:36.844Z,100442.73
2018-12-04T06:26:07.277Z,100450.19
2018-12-04T06:28:36.158Z,100453.80
2018-12-04T06:31:05.162Z,100463.30
2018-12-04T06:33:36.308Z,100474.20
2018-12-04T06:36:06.334Z,100479.87
2018-12-04T06:38:35.153Z,100482.49
2018-12-04T06:41:04.645Z,100497.27
2018-12-04T06:43:33.527Z,100503.27
2018-12-04T06:46:03.351Z,100513.86
2018-12-04T06:48:32.536Z,100515.86
2018-12-04T06:51:01.476Z,100521.81
2018-12-04T06:53:30.313Z,100536.58
2018-12-04T06:55:59.413Z,100557.20
2018-12-04T06:58:28.225Z,100558.45
2018-12-04T07:00:57.093Z,100568.87
2018-12-04T07:03:26.372Z,100577.53
2018-12-04T07:05:56.661Z,100583.46
2018-12-04T07:08:25.716Z,100581.30
2018-12-04T07:10:54.822Z,100586.77
2018-12-04T07:13:23.698Z,100592.66
2018-12-04T07:15:52.506Z,100589.86
2018-12-04T07:18:21.690Z,100594.46
2018-12-04T07:20:50.532Z,100593.20
2018-12-04T07:23:19.538Z,100594.80
2018-12-04T07:25:48.352Z,100605.02
2018-12-04T07:28:17.250Z,100614.58
2018-12-04T07:30:46.398Z,100613.67
2018-12-04T07:33:15.229Z,100622.45
2018-12-04T07:35:47.416Z,100627.80
2018-12-04T07:38:16.619Z,100640.98
2018-12-04T07:40:45.363Z,100650.24
2018-12-04T07:43:14.137Z,100656.11
2018-12-04T07:45:43.319Z,100664.64
2018-12-04T07:48:12.344Z,100677.36
2018-12-04T07:50:41.237Z,100678.56
2018-12-04T07:55:49.937Z,100694.67
2018-12-04T07:58:21.170Z,100698.37
2018-12-04T08:00:50.195Z,100706.25
2018-12-04T08:03:19.034Z,100705.88
2018-12-04T08:05:48.208Z,100705.71
2018-12-04T08:08:17.193Z,100706.41
2018-12-04T08:10:45.944Z,100710.27
2018-12-04T08:13:14.751Z,100719.70
2018-12-04T08:15:43.520Z,100723.64
2018-12-04T08:18:12.672Z,100731.52
2018-12-04T08:20:41.611Z,100745.27
2018-12-04T08:23:10.455Z,100751.38
2018-12-04T08:25:39.261Z,100758.56
2018-12-04T08:28:08.054Z,100760.66
2018-12-04T08:30:37.201Z,100763.60
2018-12-04T08:33:11.595Z,100766.55
2018-12-04T08:35:40.424Z,100782.56
2018-12-04T08:38:13.227Z,100792.20
2018-12-04T08:40:42.039Z,100792.53
2018-12-04T08:43:10.959Z,100794.30
2018-12-04T08:45:40.052Z,100801.47
2018-12-04T08:48:11.390Z,100806.88
2018-12-04T08:50:40.151Z,100812.22
2018-12-04T08:53:11.464Z,100813.56
2018-12-04T08:55:40.292Z,100819.73
2018-12-04T08:58:09.116Z,100831.63
2018-12-04T09:00:38.255Z,100835.16
2018-12-04T09:03:07.175Z,100839.47
2018-12-04T09:05:35.971Z,100837.05
2018-12-04T09:08:09.496Z,100841.98
2018-12-04T09:10:41.609Z,100846.25
2018-12-04T09:13:10.767Z,100854.53
2018-12-04T09:15:39.586Z,100850.92
2018-12-04T09:18:08.420Z,100859.58
2018-12-04T09:20:37.735Z,100873.26
2018-12-04T09:23:06.710Z,100876.66
2018-12-04T09:25:35.570Z,100878.03
2018-12-04T09:28:07.092Z,100885.70
2018-12-04T09:30:36.024Z,100888.86
2018-12-04T09:33:08.204Z,100898.27
2018-12-04T09:35:37.269Z,100902.22
2018-12-04T09:38:07.654Z,100908.73
2018-12-04T09:40:36.472Z,100909.36
2018-12-04T09:43:05.775Z,100920.61
2018-12-04T09:45:34.672Z,100927.80
2018-12-04T09:48:07.145Z,100934.39
2018-12-04T09:50:36.139Z,100940.71
2018-12-04T09:53:07.929Z,100949.83
2018-12-04T09:55:36.894Z,100950.97
2018-12-04T09:58:10.463Z,100953.59
2018-12-04T10:00:39.470Z,100960.95
2018-12-04T10:03:08.369Z,100962.17
2018-12-04T10:05:40.362Z,100956.78
2018-12-04T10:08:09.349Z,100959.48
2018-12-04T10:10:42.784Z,100960.99
2018-12-04T10:13:11.921Z,100967.30
2018-12-04T10:15:40.755Z,100974.31
2018-12-04T10:18:09.517Z,100977.92
2018-12-04T10:20:40.898Z,100981.86
2018-12-04T10:23:09.711Z,100980.84
2018-12-04T10:25:42.627Z,100982.64
2018-12-04T10:28:12.765Z,100979.23
2018-12-04T10:30:43.797Z,100986.88
2018-12-04T10:33:17.484Z,100976.69
2018-12-04T10:35:46.726Z,100989.95
2018-12-04T10:38:15.715Z,100980.84
2018-12-04T10:40:50.226Z,100991.27
2018-12-04T10:43:19.102Z,100996.97
2018-12-04T10:45:47.939Z,100999.33
2018-12-04T10:48:27.928Z,100996.00
2018-12-04T10:50:56.724Z,100997.70
2018-12-04T10:53:25.987Z,101000.66
2018-12-04T10:55:54.783Z,100999.96
2018-12-04T10:58:23.576Z,101002.89
2018-12-04T11:00:55.574Z,101002.94
2018-12-04T11:03:29.622Z,101005.77
2018-12-04T11:05:58.823Z,101016.81
2018-12-04T11:08:35.159Z,101013.16
2018-12-04T11:11:15.573Z,101023.69
2018-12-04T11:13:44.457Z,101023.84
2018-12-04T11:16:13.279Z,101024.53
2018-12-04T11:18:42.424Z,101027.44
2018-12-04T11:21:11.280Z,101026.73
2018-12-04T11:23:43.698Z,101042.55
2018-12-04T11:26:12.835Z,101038.88
2018-12-04T11:28:47.477Z,101049.12
2018-12-04T11:31:16.632Z,101047.19
2018-12-04T11:33:45.487Z,101053.34
2018-12-04T11:36:14.314Z,101062.54
2018-12-04T11:38:44.589Z,101059.80
2018-12-04T11:41:13.421Z,101062.60
2018-12-04T11:43:42.268Z,101064.83
2018-12-04T11:46:11.401Z,101064.78
2018-12-04T11:48:40.245Z,101070.56
2018-12-04T11:51:09.075Z,101067.94
2018-12-04T11:53:47.604Z,101076.08
2018-12-04T11:56:16.651Z,101079.56
2018-12-04T11:58:45.584Z,101087.64
2018-12-04T12:01:28.574Z,101080.72
2018-12-04T12:03:57.966Z,101084.54
2018-12-04T12:06:26.935Z,101084.40
2018-12-04T12:08:55.820Z,101085.38
2018-12-04T12:11:39.807Z,101087.63
2018-12-04T12:14:17.464Z,101104.33
2018-12-04T12:16:47.000Z,101100.39
2018-12-04T12:19:15.840Z,101109.30
2018-12-04T12:21:44.693Z,101113.73
2018-12-04T12:24:18.523Z,101112.61
2018-12-04T12:26:47.445Z,101113.85
2018-12-04T12:29:16.929Z,101116.89
2018-12-04T12:31:46.078Z,101122.44
2018-12-04T12:34:23.389Z,101124.03
2018-12-04T12:36:49.277Z,101129.66
2018-12-04T12:39:19.332Z,101134.52
2018-12-04T12:41:48.184Z,101140.11
2018-12-04T12:44:18.181Z,101134.32
2018-12-04T12:46:48.417Z,101139.33
2018-12-04T12:49:17.653Z,101142.34
2018-12-04T12:51:46.434Z,101137.94
2018-12-04T12:54:21.611Z,101140.09
2018-12-04T12:56:50.753Z,101139.28
2018-12-04T12:59:19.774Z,101140.06
2018-12-04T13:01:48.968Z,101137.15
2018-12-04T13:04:17.829Z,101128.59
2018-12-04T13:06:46.728Z,101135.50
2018-12-04T13:09:15.760Z,101137.60
2018-12-04T13:11:44.574Z,101132.83
2018-12-04T13:14:13.833Z,101132.14
2018-12-04T13:16:42.679Z,101138.67
2018-12-04T13:19:11.633Z,101142.63
2018-12-04T13:21:42.034Z,101145.34
2018-12-04T13:24:15.610Z,101150.39
2018-12-04T13:26:53.929Z,101159.02
2018-12-04T13:29:23.009Z,101163.48
2018-12-04T13:31:51.824Z,101166.34
2018-12-04T13:34:20.991Z,101170.08
2018-12-04T13:36:49.800Z,101174.06
2018-12-04T13:39:18.668Z,101177.23
2018-12-04T13:41:47.540Z,101181.07
2018-12-04T13:44:16.600Z,101176.42
2018-12-04T13:49:21.392Z,101186.83
2018-12-04T13:51:50.264Z,101193.37
2018-12-04T13:54:19.804Z,101200.34
2018-12-04T13:56:48.618Z,101205.56
2018-12-04T13:59:23.282Z,101208.73
2018-12-04T14:01:52.123Z,101208.73
2018-12-04T14:04:20.978Z,101206.37
2018-12-04T14:06:50.374Z,101211.19
2018-12-04T14:09:19.219Z,101212.95
2018-12-04T14:11:48.109Z,101215.50
2018-12-04T14:14:17.232Z,101215.97
2018-12-04T14:16:49.779Z,101223.27
2018-12-04T14:19:18.671Z,101220.39
2018-12-04T14:21:47.887Z,101219.87
2018-12-04T14:24:16.937Z,101234.13
2018-12-04T14:26:45.749Z,101238.41
2018-12-04T14:29:14.908Z,101244.27
2018-12-04T14:31:50.304Z,101239.92
2018-12-04T14:34:19.372Z,101243.94
2018-12-04T14:36:48.386Z,101250.28
2018-12-04T14:39:17.347Z,101247.20
2018-12-04T14:41:46.344Z,101249.81
2018-12-04T14:44:20.634Z,101249.72
2018-12-04T14:46:49.748Z,101256.66
2018-12-04T14:49:18.587Z,101259.19
2018-12-04T14:51:47.396Z,101256.77
2018-12-04T14:54:16.555Z,101271.88
2018-12-04T14:56:49.445Z,101280.03
2018-12-04T14:59:18.379Z,101281.41
2018-12-04T15:01:47.770Z,101290.78
2018-12-04T15:04:16.755Z,101299.45
2018-12-04T15:06:45.673Z,101301.34
2018-12-04T15:09:14.793Z,101309.74
2018-12-04T15:11:47.043Z,101310.77
2018-12-04T15:14:16.154Z,101314.95
2018-12-04T15:16:45.421Z,101317.80
2018-12-04T15:19:14.260Z,101318.77
2018-12-04T15:21:43.075Z,101321.97
2018-12-04T15:24:12.206Z,101328.11
2018-12-04T15:26:41.216Z,101326.58
2018-12-04T15:29:11.440Z,101331.19
2018-12-04T15:31:40.553Z,101332.31
2018-12-04T15:34:09.456Z,101342.13
2018-12-04T15:36:38.319Z,101342.83
2018-12-04T15:39:09.283Z,101353.16
2018-12-04T15:41:38.487Z,101361.59
2018-12-04T15:44:07.361Z,101356.08
2018-12-04T15:46:36.495Z,101353.61
2018-12-04T15:49:08.544Z,101358.61
2018-12-04T15:51:37.447Z,101358.31
2018-12-04T15:54:06.334Z,101364.22
2018-12-04T15:56:35.300Z,101362.09
2018-12-04T15:59:04.795Z,101360.78
2018-12-04T16:01:33.700Z,101371.48
2018-12-04T16:04:03.410Z,101374.66
2018-12-04T16:06:32.583Z,101376.63
2018-12-04T16:09:01.696Z,101370.57
2018-12-04T16:11:30.744Z,101371.58
2018-12-04T16:15:02.635Z,101369.96
2018-12-04T16:17:31.689Z,101377.48
2018-12-04T16:20:00.952Z,101386.41
2018-12-04T16:22:29.739Z,101390.92
2018-12-04T16:25:00.117Z,101398.86
2018-12-04T16:27:28.947Z,101401.06
2018-12-04T16:29:58.694Z,101397.63
2018-12-04T16:32:27.833Z,101397.80
2018-12-04T16:34:56.630Z,101405.73
2018-12-04T16:37:25.458Z,101400.19
2018-12-04T16:39:54.563Z,101416.48
2018-12-04T16:42:24.875Z,101408.59
2018-12-04T16:44:53.768Z,101421.02
2018-12-04T16:47:28.497Z,101426.37
2018-12-04T16:49:57.424Z,101435.17
2018-12-04T16:52:27.253Z,101430.31
2018-12-04T16:54:56.596Z,101436.41
2018-12-04T16:57:25.769Z,101439.03
2018-12-04T16:59:54.630Z,101445.66
2018-12-04T17:02:23.922Z,101450.52
2018-12-04T17:04:52.796Z,101450.57
2018-12-04T17:07:22.116Z,101446.27
2018-12-04T17:12:26.050Z,101455.98
2018-12-04T17:15:01.201Z,101460.41
2018-12-04T17:17:30.796Z,101467.50
2018-12-04T17:20:00.058Z,101469.30
2018-12-04T17:22:34.867Z,101472.80
2018-12-04T17:25:04.879Z,101478.09
2018-12-04T17:27:34.284Z,101475.55
2018-12-04T17:30:06.159Z,101484.31
2018-12-04T17:32:36.074Z,101488.85
2018-12-04T17:35:05.858Z,101488.91
2018-12-04T17:37:35.297Z,101489.78
2018-12-04T17:40:12.686Z,101494.20
2018-12-04T17:42:41.962Z,101493.81
2018-12-04T17:45:11.850Z,101493.83
2018-12-04T17:47:41.229Z,101487.83
2018-12-04T17:50:11.421Z,101492.56
2018-12-04T17:52:41.243Z,101491.70
2018-12-04T17:55:10.740Z,101499.98
2018-12-04T17:57:43.840Z,101495.67
2018-12-04T18:00:15.366Z,101493.92
2018-12-04T18:02:45.118Z,101492.19
2018-12-04T18:05:14.764Z,101487.94
2018-12-04T18:07:44.810Z,101492.35
2018-12-04T18:10:14.414Z,101491.48
2018-12-04T18:12:44.315Z,101490.66
2018-12-04T18:15:18.059Z,101490.27
2018-12-04T18:17:47.517Z,101492.02
2018-12-04T18:20:17.143Z,101501.30
2018-12-04T18:22:47.094Z,101511.38
2018-12-04T18:25:16.521Z,101512.30
2018-12-04T18:27:46.163Z,101525.09
2018-12-04T18:30:21.593Z,101534.31
2018-12-04T18:32:51.697Z,101531.31
2018-12-04T18:35:23.272Z,101530.94
2018-12-04T18:37:53.297Z,101534.46
2018-12-04T18:40:23.652Z,101534.46
2018-12-04T18:42:53.121Z,101540.62
2018-12-04T18:45:23.240Z,101546.67
2018-12-04T18:47:52.813Z,101549.88
2018-12-04T18:50:22.393Z,101553.42
2018-12-04T18:52:52.219Z,101552.11
2018-12-04T18:55:24.383Z,101550.45
2018-12-04T18:57:54.288Z,101554.38
2018-12-04T19:00:27.314Z,101552.25
2018-12-04T19:02:57.454Z,101546.63
2018-12-04T19:05:26.961Z,101548.08
2018-12-04T19:07:57.229Z,101555.98
2018-12-04T19:10:26.813Z,101558.69
2018-12-04T19:12:56.397Z,101556.95
2018-12-04T19:15:31.953Z,101563.05
2018-12-04T19:18:04.371Z,101560.48
2018-12-04T19:20:33.933Z,101570.94
2018-12-04T19:23:08.908Z,101568.28
2018-12-04T19:25:38.462Z,101570.55
2018-12-04T19:28:13.328Z,101574.99
2018-12-04T19:33:23.693Z,101557.71
2018-12-04T19:35:53.272Z,101566.38
2018-12-04T19:38:22.787Z,101566.43
2018-12-04T19:40:52.385Z,101572.14
2018-12-04T19:43:21.913Z,101563.52
2018-12-04T19:45:51.826Z,101566.17
2018-12-04T19:48:25.125Z,101568.35
2018-12-04T19:50:54.680Z,101572.36
2018-12-04T19:53:25.557Z,101565.48
2018-12-04T19:55:55.146Z,101569.88
2018-12-04T19:58:25.398Z,101573.80
2018-12-04T20:00:54.988Z,101575.11
2018-12-04T20:03:29.621Z,101580.42
2018-12-04T20:06:00.435Z,101577.89
2018-12-04T20:08:34.374Z,101575.20
2018-12-04T20:11:09.152Z,101570.45
2018-12-04T20:13:38.673Z,101560.91
2018-12-04T20:16:08.220Z,101569.14
2018-12-04T20:18:37.781Z,101577.89
2018-12-04T20:21:07.737Z,101579.61
2018-12-04T20:23:37.352Z,101572.69
2018-12-04T20:26:12.411Z,101572.33
2018-12-04T20:28:42.402Z,101582.34
2018-12-04T20:31:13.516Z,101590.22
2018-12-04T20:36:19.125Z,101597.72
2018-12-04T20:38:48.875Z,101596.88
2018-12-04T20:41:18.375Z,101596.05
2018-12-04T20:43:54.966Z,101608.28
2018-12-04T20:46:24.895Z,101613.55
2018-12-04T20:48:54.380Z,101613.59
2018-12-04T20:51:24.522Z,101612.36
2018-12-04T20:53:54.099Z,101609.31
2018-12-04T20:56:25.983Z,101610.66
2018-12-04T20:58:55.732Z,101624.74
2018-12-04T21:01:25.257Z,101622.17
2018-12-04T21:04:00.204Z,101625.30
2018-12-04T21:06:29.723Z,101628.38
2018-12-04T21:08:59.422Z,101628.85
2018-12-04T21:11:29.120Z,101621.85
2018-12-04T21:13:58.562Z,101624.86
2018-12-04T21:16:28.579Z,101624.34
2018-12-04T21:18:58.059Z,101626.05
2018-12-04T21:21:27.520Z,101630.36
2018-12-04T21:23:57.463Z,101636.85
2018-12-04T21:26:26.992Z,101632.47
2018-12-04T21:29:02.104Z,101644.58
2018-12-04T21:34:16.914Z,101645.41
2018-12-04T21:36:51.703Z,101640.14
2018-12-04T21:39:25.953Z,101636.73
2018-12-04T21:43:10.488Z,101636.70
2018-12-04T21:45:44.973Z,101639.90
2018-12-04T21:48:22.441Z,101643.81
2018-12-04T21:50:52.066Z,101644.29
2018-12-04T21:53:21.675Z,101647.41
2018-12-04T21:55:54.881Z,101643.09
2018-12-04T21:58:24.278Z,101646.06
2018-12-04T22:00:54.865Z,101647.37
2018-12-04T22:03:23.859Z,101648.25
2018-12-04T22:05:53.137Z,101657.38
2018-12-04T22:08:22.049Z,101651.22
2018-12-04T22:10:50.864Z,101646.47
2018-12-04T22:13:19.991Z,101643.81
2018-12-04T22:15:54.908Z,101650.27
2018-12-04T22:18:25.610Z,101658.54
2018-12-04T22:20:54.394Z,101663.33
2018-12-04T22:23:23.209Z,101663.73
2018-12-04T22:25:55.604Z,101671.53
2018-12-04T22:28:24.442Z,101677.26
2018-12-04T22:30:54.706Z,101675.08
2018-12-04T22:33:24.405Z,101669.82
2018-12-04T22:35:54.213Z,101666.30
2018-12-04T22:38:23.089Z,101674.61
2018-12-04T22:40:53.487Z,101670.66
2018-12-04T22:43:22.566Z,101671.05
2018-12-04T22:45:51.404Z,101665.47
2018-12-04T22:48:21.931Z,101662.81
2018-12-04T22:50:50.920Z,101662.38
2018-12-04T22:53:19.903Z,101662.86
2018-12-04T22:55:49.381Z,101667.64
2018-12-04T22:58:18.419Z,101663.65
2018-12-04T23:00:49.330Z,101665.47
2018-12-04T23:03:18.643Z,101671.56
2018-12-04T23:05:47.637Z,101674.61
2018-12-04T23:08:16.653Z,101670.69
2018-12-04T23:10:46.039Z,101668.08
2018-12-04T23:13:18.302Z,101661.11
2018-12-04T23:15:47.192Z,101660.64
2018-12-04T23:18:16.463Z,101658.90
2018-12-04T23:20:45.404Z,101660.17
2018-12-04T23:23:14.319Z,101665.00
2018-12-04T23:25:49.564Z,101655.38
2018-12-04T23:28:18.510Z,101650.20
2018-12-04T23:30:48.263Z,101651.94
2018-12-04T23:33:19.882Z,101654.98
2018-12-04T23:35:48.894Z,101653.48
2018-12-04T23:38:17.887Z,101651.46
2018-12-04T23:40:47.296Z,101643.30
2018-12-04T23:43:16.330Z,101646.00
2018-12-04T23:45:45.394Z,101639.06
2018-12-04T23:48:14.753Z,101642.52
2018-12-04T23:50:43.696Z,101645.52
2018-12-04T23:53:12.734Z,101644.69
2018-12-04T23:55:42.160Z,101639.11
2018-12-04T23:58:11.017Z,101635.15
